Time;durP1;ratioP1;P1;durP2;ratioP2;P2;SDS_P1;SDS_P2;PMS_P1;PMS_P2;Temp;Humidity;BMP_temperature;BMP_pressure;BME280_temperature;BME280_humidity;BME280_pressure;Samples;Min_cycle;Max_cycle;Signal;HPM_P1;HPM_P2
2023/06/21 00:00:25;;;;;;;13.73;8.30;;;;;;;20.30;100.00;100477.69;6037412;28;20113;-64
2023/06/21 00:03:20;;;;;;;11.13;6.80;;;;;;;19.97;100.00;100462.47;6049029;28;20026;-65
2023/06/21 00:06:15;;;;;;;10.77;5.47;;;;;;;19.84;100.00;100462.50;6049765;28;20535;-65
2023/06/21 00:09:11;;;;;;;9.30;5.50;;;;;;;19.82;100.00;100461.06;6049535;28;20048;-64
2023/06/21 00:12:06;;;;;;;9.75;5.20;;;;;;;19.63;100.00;100448.50;6049263;28;20265;-65
2023/06/21 00:15:03;;;;;;;8.82;4.47;;;;;;;19.69;100.00;100461.13;6033241;28;20090;-64
2023/06/21 00:17:58;;;;;;;9.15;4.82;;;;;;;19.62;100.00;100463.00;6048733;28;20022;-65
2023/06/21 00:20:59;;;;;;;12.00;5.60;;;;;;;19.56;100.00;100448.53;6053966;28;20026;-65
2023/06/21 00:23:54;;;;;;;8.60;5.53;;;;;;;19.59;100.00;100459.69;6053615;28;20354;-65
2023/06/21 00:26:49;;;;;;;9.67;5.47;;;;;;;19.52;100.00;100460.72;6053921;28;20030;-65
2023/06/21 00:29:45;;;;;;;7.77;4.93;;;;;;;19.49;100.00;100463.84;6054307;28;20087;-65
2023/06/21 00:32:40;;;;;;;11.77;5.45;;;;;;;19.43;100.00;100459.31;6042557;28;20038;-65
2023/06/21 00:35:35;;;;;;;8.50;5.10;;;;;;;19.49;100.00;100464.69;6034078;28;20030;-65
2023/06/21 00:38:34;;;;;;;8.57;4.90;;;;;;;19.58;100.00;100449.13;6047597;28;20042;-65
2023/06/21 00:41:29;;;;;;;9.23;5.05;;;;;;;19.65;100.00;100460.69;6051350;28;20022;-66
2023/06/21 00:44:25;;;;;;;8.33;5.13;;;;;;;19.56;100.00;100459.28;6053359;28;20045;-65
2023/06/21 00:47:22;;;;;;;10.30;5.27;;;;;;;19.67;100.00;100455.13;6053486;28;20054;-65
2023/06/21 00:50:17;;;;;;;10.40;5.60;;;;;;;19.76;100.00;100459.25;6048770;28;20295;-65
2023/06/21 00:53:12;;;;;;;9.25;5.25;;;;;;;20.10;100.00;100457.03;6053488;28;20029;-66
2023/06/21 00:56:08;;;;;;;8.73;4.90;;;;;;;19.91;100.00;100449.03;6067954;28;20037;-66
2023/06/21 00:59:04;;;;;;;8.13;4.53;;;;;;;19.79;100.00;100446.16;6052045;28;20018;-66
2023/06/21 01:02:03;;;;;;;8.88;5.07;;;;;;;20.15;100.00;100464.47;6053197;28;20032;-65
2023/06/21 01:04:58;;;;;;;7.97;4.50;;;;;;;19.86;100.00;100465.84;6047783;28;20025;-65
2023/06/21 01:08:16;;;;;;;10.60;5.50;;;;;;;19.67;100.00;100461.34;6045062;28;20030;-65
2023/06/21 01:11:24;;;;;;;8.68;5.60;;;;;;;19.77;100.00;100472.47;6053680;28;20045;-65
2023/06/21 01:14:44;;;;;;;7.60;5.38;;;;;;;19.99;100.00;100465.78;6052355;28;20393;-66
2023/06/21 01:17:40;;;;;;;8.18;5.13;;;;;;;19.70;100.00;100460.91;6053048;28;20378;-66
2023/06/21 01:20:37;;;;;;;8.00;4.57;;;;;;;19.78;100.00;100471.44;6051608;28;20037;-66
2023/06/21 01:23:58;;;;;;;6.85;4.38;;;;;;;19.84;100.00;100472.47;6058364;28;20113;-66
2023/06/21 01:27:30;;;;;;;7.78;4.70;;;;;;;20.02;100.00;100473.44;6068015;28;20059;-66
2023/06/21 01:30:26;;;;;;;7.15;4.35;;;;;;;19.83;100.00;100463.56;6052787;28;20026;-65
2023/06/21 01:33:23;;;;;;;10.50;5.30;;;;;;;19.95;100.00;100458.31;6060678;28;20382;-65
2023/06/21 01:36:18;;;;;;;8.48;4.85;;;;;;;19.86;100.00;100444.31;6038718;28;20037;-65
2023/06/21 01:39:15;;;;;;;10.80;4.82;;;;;;;19.74;100.00;100451.38;6035630;28;20034;-66
2023/06/21 01:42:10;;;;;;;11.13;5.18;;;;;;;19.77;100.00;100459.03;6044966;28;20045;-65
2023/06/21 01:45:06;;;;;;;9.40;5.10;;;;;;;19.71;100.00;100430.25;6052207;28;20022;-65
2023/06/21 01:48:02;;;;;;;11.27;5.03;;;;;;;19.69;100.00;100443.09;6052116;28;20480;-65
2023/06/21 01:50:58;;;;;;;10.45;4.80;;;;;;;19.60;100.00;100431.75;6052302;28;20049;-66
2023/06/21 01:53:54;;;;;;;9.10;4.95;;;;;;;19.54;100.00;100446.03;6051371;28;20025;-66
2023/06/21 01:56:50;;;;;;;9.05;5.53;;;;;;;19.53;100.00;100454.34;6034952;28;20604;-66
2023/06/21 01:59:46;;;;;;;8.23;4.78;;;;;;;19.53;100.00;100454.34;6058195;28;20037;-65
2023/06/21 02:02:42;;;;;;;9.50;4.97;;;;;;;19.38;100.00;100449.19;6051831;28;20644;-65
2023/06/21 02:05:39;;;;;;;6.35;4.05;;;;;;;19.42;100.00;100463.03;6050098;28;20322;-66
2023/06/21 02:08:34;;;;;;;8.48;5.00;;;;;;;19.28;100.00;100439.84;6066958;28;20377;-66
2023/06/21 02:11:30;;;;;;;8.50;4.75;;;;;;;19.34;100.00;100449.78;6037084;28;20071;-65
2023/06/21 02:14:25;;;;;;;9.60;5.07;;;;;;;19.20;100.00;100464.28;6061412;28;20034;-65
2023/06/21 02:17:22;;;;;;;8.43;4.90;;;;;;;18.97;100.00;100454.75;6051462;28;20369;-65
2023/06/21 02:20:19;;;;;;;10.48;5.22;;;;;;;19.07;100.00;100475.03;6051599;28;20284;-65
2023/06/21 02:23:14;;;;;;;8.13;4.78;;;;;;;19.05;100.00;100482.47;6066226;28;20026;-65
2023/06/21 02:26:10;;;;;;;10.33;5.03;;;;;;;18.89;100.00;100475.63;6051411;28;20038;-66
2023/06/21 02:29:05;;;;;;;8.15;5.03;;;;;;;18.83;100.00;100485.34;6042496;28;20500;-65
2023/06/21 02:32:00;;;;;;;7.73;4.57;;;;;;;18.78;100.00;100489.69;6045656;28;20489;-66
2023/06/21 02:34:56;;;;;;;11.40;5.03;;;;;;;18.89;100.00;100514.09;6038747;28;20039;-65
2023/06/21 02:37:51;;;;;;;11.57;5.20;;;;;;;18.70;100.00;100490.69;6039587;28;20038;-65
2023/06/21 02:40:46;;;;;;;9.90;4.77;;;;;;;18.73;100.00;100509.09;6040044;28;20285;-66
2023/06/21 02:43:42;;;;;;;7.73;5.07;;;;;;;18.65;100.00;100519.22;6044802;28;20040;-65
2023/06/21 02:46:37;;;;;;;8.63;5.37;;;;;;;18.61;100.00;100534.91;6050719;28;20041;-66
2023/06/21 02:49:36;;;;;;;10.13;5.50;;;;;;;18.58;100.00;100538.00;6051121;28;20038;-65
2023/06/21 02:52:32;;;;;;;8.65;5.30;;;;;;;18.50;100.00;100532.81;6050784;28;20486;-66
2023/06/21 02:55:27;;;;;;;10.07;5.67;;;;;;;18.51;100.00;100558.63;6050265;28;20032;-65
2023/06/21 02:58:22;;;;;;;12.57;5.53;;;;;;;18.48;100.00;100553.66;6050674;28;20353;-66
2023/06/21 03:01:17;;;;;;;10.13;5.50;;;;;;;18.48;100.00;100556.34;6041385;28;20289;-65
2023/06/21 03:04:16;;;;;;;11.07;6.47;;;;;;;18.45;100.00;100562.09;6045250;28;20378;-65
2023/06/21 03:07:11;;;;;;;12.32;5.80;;;;;;;18.36;100.00;100558.75;6050385;28;20269;-65
2023/06/21 03:10:06;;;;;;;10.83;5.30;;;;;;;18.43;100.00;100559.59;6050697;28;20034;-65
2023/06/21 03:13:02;;;;;;;8.48;5.40;;;;;;;18.48;100.00;100561.72;6050255;28;20068;-65
2023/06/21 03:15:57;;;;;;;14.52;6.07;;;;;;;18.51;100.00;100576.63;6047404;28;20033;-65
2023/06/21 03:18:52;;;;;;;12.03;6.13;;;;;;;18.51;100.00;100576.63;6050218;28;20042;-66
2023/06/21 03:21:48;;;;;;;11.23;5.50;;;;;;;18.56;100.00;100580.38;6050128;28;20033;-65
2023/06/21 03:24:43;;;;;;;10.07;5.50;;;;;;;18.53;100.00;100570.03;6049634;28;20438;-65
2023/06/21 03:27:39;;;;;;;13.77;5.68;;;;;;;18.57;100.00;100578.47;6050081;28;20064;-65
2023/06/21 03:30:34;;;;;;;12.27;5.32;;;;;;;18.49;100.00;100582.19;6046397;28;20076;-66
2023/06/21 03:33:29;;;;;;;9.20;5.10;;;;;;;18.60;100.00;100592.34;6032091;28;20029;-66
2023/06/21 03:36:26;;;;;;;9.57;6.07;;;;;;;18.58;100.00;100583.66;6024680;28;20378;-66
2023/06/21 03:39:21;;;;;;;13.35;5.72;;;;;;;18.67;100.00;100598.56;6050020;28;20450;-65
2023/06/21 03:42:18;;;;;;;10.27;5.43;;;;;;;18.63;100.00;100597.31;6047395;28;20076;-65
2023/06/21 03:45:13;;;;;;;13.90;5.53;;;;;;;18.75;100.00;100611.00;6052541;28;20261;-66
2023/06/21 03:48:08;;;;;;;16.52;6.03;;;;;;;18.78;100.00;100622.16;6045986;28;20033;-66
2023/06/21 03:51:04;;;;;;;10.60;5.40;;;;;;;18.78;100.00;100629.44;6049694;28;20046;-66
2023/06/21 03:53:59;;;;;;;9.63;5.78;;;;;;;18.82;100.00;100644.09;6049204;28;20097;-67
2023/06/21 03:56:54;;;;;;;10.03;6.17;;;;;;;18.80;100.00;100635.41;6049275;28;20523;-65
2023/06/21 03:59:50;;;;;;;11.07;5.70;;;;;;;18.86;100.00;100648.84;6049745;28;20057;-65
2023/06/21 04:02:45;;;;;;;9.37;5.53;;;;;;;18.79;100.00;100645.34;6049813;28;20041;-66
2023/06/21 04:05:40;;;;;;;11.33;6.10;;;;;;;18.77;100.00;100636.66;6047464;28;20064;-65
2023/06/21 04:08:35;;;;;;;13.20;6.27;;;;;;;18.78;100.00;100654.41;6050163;28;20037;-65
2023/06/21 04:11:31;;;;;;;14.03;5.87;;;;;;;18.78;100.00;100654.41;6042197;28;20077;-66
2023/06/21 04:14:27;;;;;;;10.02;6.13;;;;;;;18.91;100.00;100675.16;6049225;28;20050;-66
2023/06/21 04:17:22;;;;;;;10.97;6.17;;;;;;;18.91;100.00;100665.22;6046827;28;20036;-65
2023/06/21 04:20:17;;;;;;;13.57;6.43;;;;;;;18.93;100.00;100684.66;6039713;28;20404;-66
2023/06/21 04:23:13;;;;;;;11.70;6.28;;;;;;;19.07;100.00;100696.31;6049392;28;20048;-66
2023/06/21 04:26:08;;;;;;;12.97;6.20;;;;;;;19.34;100.00;100699.88;6048742;28;20146;-64
2023/06/21 04:29:03;;;;;;;12.13;6.07;;;;;;;19.43;100.00;100685.25;6049332;28;20275;-65
2023/06/21 04:31:59;;;;;;;12.88;6.53;;;;;;;19.77;100.00;100698.53;6049443;28;20449;-64
2023/06/21 04:34:54;;;;;;;14.37;5.80;;;;;;;20.08;100.00;100682.56;6036390;28;20105;-65
2023/06/21 04:37:49;;;;;;;13.43;6.03;;;;;;;20.43;100.00;100699.38;6048546;28;20481;-66
2023/06/21 04:40:45;;;;;;;12.00;6.80;;;;;;;20.51;100.00;100696.44;6048999;28;20385;-65
2023/06/21 04:43:41;;;;;;;10.93;5.80;;;;;;;20.69;100.00;100693.06;6046929;28;20030;-66
2023/06/21 04:46:37;;;;;;;10.85;5.75;;;;;;;20.83;100.00;100697.38;6064372;28;20026;-66
2023/06/21 04:49:32;;;;;;;10.40;5.57;;;;;;;20.83;100.00;100710.84;6049033;28;20484;-66
2023/06/21 04:52:28;;;;;;;9.23;5.50;;;;;;;20.84;100.00;100714.38;6049440;28;20034;-66
2023/06/21 04:55:24;;;;;;;11.45;5.70;;;;;;;20.98;100.00;100732.19;6048213;28;20800;-65
2023/06/21 04:58:20;;;;;;;7.32;5.03;;;;;;;20.77;100.00;100725.19;6049269;28;20070;-65
2023/06/21 05:01:15;;;;;;;10.00;6.07;;;;;;;20.60;100.00;100726.69;6049024;28;20491;-66
2023/06/21 05:04:10;;;;;;;11.63;6.83;;;;;;;20.40;100.00;100732.13;6051062;28;20676;-65
2023/06/21 05:07:06;;;;;;;11.07;6.05;;;;;;;20.09;100.00;100730.03;6053563;28;20054;-65
2023/06/21 05:10:01;;;;;;;13.10;6.32;;;;;;;20.12;100.00;100723.38;6047786;28;20118;-65
2023/06/21 05:12:56;;;;;;;10.10;6.10;;;;;;;20.26;100.00;100735.03;6040453;28;20057;-65
2023/06/21 05:15:52;;;;;;;11.27;6.00;;;;;;;20.14;100.00;100740.16;6052503;28;20041;-65
2023/06/21 05:18:47;;;;;;;9.87;6.27;;;;;;;20.27;100.00;100744.78;6052886;28;20026;-65
2023/06/21 05:21:44;;;;;;;10.15;5.65;;;;;;;20.41;100.00;100743.72;6053167;28;20300;-65
2023/06/21 05:24:39;;;;;;;8.45;6.07;;;;;;;20.42;100.00;100738.13;6052066;28;20044;-65
2023/06/21 05:27:34;;;;;;;11.97;5.53;;;;;;;20.60;100.00;100737.47;6053013;28;20022;-65
2023/06/21 05:30:30;;;;;;;9.97;5.43;;;;;;;20.95;100.00;100736.13;6045038;28;20017;-65
2023/06/21 05:33:25;;;;;;;15.10;5.67;;;;;;;21.15;100.00;100717.19;6033872;28;20046;-65
2023/06/21 05:36:20;;;;;;;12.83;5.33;;;;;;;21.44;100.00;100734.69;6032155;28;20030;-65
2023/06/21 05:39:16;;;;;;;12.70;5.20;;;;;;;21.16;100.00;100732.34;6026628;28;20281;-66
2023/06/21 05:42:11;;;;;;;9.90;5.30;;;;;;;21.59;98.25;100738.75;6051030;28;20037;-65
2023/06/21 05:45:08;;;;;;;8.88;5.30;;;;;;;21.89;96.25;100745.22;6044349;28;20064;-65
2023/06/21 05:48:03;;;;;;;9.93;4.97;;;;;;;22.18;92.49;100754.53;6042486;28;20465;-65
2023/06/21 05:50:59;;;;;;;9.40;4.57;;;;;;;22.09;93.14;100765.84;6052401;28;20026;-65
2023/06/21 05:53:56;;;;;;;10.03;5.20;;;;;;;21.82;93.22;100760.59;6051605;28;20025;-66
2023/06/21 05:56:52;;;;;;;7.60;4.32;;;;;;;21.90;94.09;100779.25;6052325;28;20034;-65
2023/06/21 05:59:48;;;;;;;10.27;4.53;;;;;;;22.16;93.32;100777.41;6041739;28;20038;-65
2023/06/21 06:02:44;;;;;;;8.03;4.50;;;;;;;21.96;93.78;100777.56;6052230;28;20511;-66
2023/06/21 06:05:40;;;;;;;7.35;4.00;;;;;;;21.97;92.96;100794.59;6051498;28;20049;-65
2023/06/21 06:08:35;;;;;;;10.20;4.40;;;;;;;21.99;93.35;100793.34;6044531;28;20038;-66
2023/06/21 06:11:30;;;;;;;7.90;4.30;;;;;;;21.64;93.48;100794.78;6052083;28;20032;-66
2023/06/21 06:14:26;;;;;;;9.30;4.30;;;;;;;21.55;95.27;100796.88;6049943;28;20070;-66
2023/06/21 06:17:21;;;;;;;8.75;4.20;;;;;;;21.92;94.31;100793.41;6050669;28;20025;-66
2023/06/21 06:20:16;;;;;;;6.97;4.07;;;;;;;22.32;91.72;100787.69;6055458;28;20408;-65
2023/06/21 06:23:12;;;;;;;8.38;4.40;;;;;;;23.00;89.00;100802.03;6053801;28;20260;-66
2023/06/21 06:26:07;;;;;;;6.88;3.75;;;;;;;23.47;84.81;100804.00;6051053;28;20034;-66
2023/06/21 06:29:03;;;;;;;5.97;3.60;;;;;;;22.95;83.57;100785.66;6051350;28;20029;-66
2023/06/21 06:31:58;;;;;;;5.87;3.70;;;;;;;23.22;83.19;100811.34;6051491;28;20033;-66
2023/06/21 06:34:53;;;;;;;6.87;4.17;;;;;;;23.11;84.47;100814.81;6022087;28;20105;-66
2023/06/21 06:37:48;;;;;;;5.27;3.37;;;;;;;23.70;82.87;100820.34;6030599;28;20097;-66
2023/06/21 06:40:44;;;;;;;10.00;3.73;;;;;;;23.92;80.27;100804.41;6049769;28;20679;-66
2023/06/21 06:43:39;;;;;;;7.90;3.53;;;;;;;23.36;82.46;100818.25;6043100;28;20034;-66
2023/06/21 06:46:34;;;;;;;6.57;3.70;;;;;;;23.21;82.83;100825.94;6046349;28;20025;-66
2023/06/21 06:49:30;;;;;;;7.67;3.33;;;;;;;23.33;84.89;100837.66;6025891;28;20026;-66
2023/06/21 06:52:25;;;;;;;7.00;3.70;;;;;;;22.92;81.26;100823.97;6050881;28;20060;-66
2023/06/21 06:55:20;;;;;;;6.00;3.73;;;;;;;23.07;83.60;100830.66;6050353;28;20104;-66
2023/06/21 06:58:15;;;;;;;6.63;3.35;;;;;;;23.43;80.91;100829.03;6042479;28;20025;-66
2023/06/21 07:01:11;;;;;;;7.33;3.73;;;;;;;23.43;77.66;100826.31;6040946;28;20100;-66
2023/06/21 07:04:06;;;;;;;5.85;3.40;;;;;;;23.39;77.19;100838.66;6050055;28;20026;-66
2023/06/21 07:07:02;;;;;;;6.90;3.67;;;;;;;23.41;77.72;100836.56;6050455;28;20523;-66
2023/06/21 07:09:57;;;;;;;5.57;3.50;;;;;;;23.74;77.28;100841.56;6050640;28;20026;-66
2023/06/21 07:12:53;;;;;;;6.15;3.38;;;;;;;23.58;76.17;100816.78;6040439;28;20040;-66
2023/06/21 07:15:48;;;;;;;7.13;3.38;;;;;;;23.85;75.16;100828.06;6050089;28;20045;-65
2023/06/21 07:18:44;;;;;;;6.40;3.28;;;;;;;23.76;73.96;100839.44;6050572;28;20489;-65
2023/06/21 07:21:40;;;;;;;7.30;3.73;;;;;;;23.50;76.83;100846.88;6050189;28;20034;-65
2023/06/21 07:24:35;;;;;;;5.65;3.42;;;;;;;23.24;78.48;100857.94;6049554;28;20389;-65
2023/06/21 07:27:30;;;;;;;6.13;4.00;;;;;;;22.91;79.49;100854.78;6036865;28;20494;-65
2023/06/21 07:30:26;;;;;;;5.38;3.38;;;;;;;23.39;78.89;100857.63;6050325;28;20057;-65
2023/06/21 07:33:21;;;;;;;5.97;3.77;;;;;;;23.69;75.92;100864.75;6049677;28;20029;-66
2023/06/21 07:36:17;;;;;;;5.30;3.47;;;;;;;24.27;75.17;100866.84;6030279;28;20030;-65
2023/06/21 07:39:13;;;;;;;4.87;3.33;;;;;;;24.27;74.35;100872.28;6040440;28;20038;-65
2023/06/21 07:42:08;;;;;;;7.10;4.10;;;;;;;24.19;73.69;100876.16;6045261;28;20029;-65
2023/06/21 07:45:05;;;;;;;5.93;3.63;;;;;;;24.08;71.72;100892.38;6049505;28;20036;-65
2023/06/21 07:48:02;;;;;;;5.60;3.47;;;;;;;23.48;74.42;100880.63;6049842;28;20461;-66
2023/06/21 07:50:57;;;;;;;7.28;3.47;;;;;;;23.47;73.55;100878.97;6049882;28;20026;-65
2023/06/21 07:53:52;;;;;;;5.20;3.05;;;;;;;23.65;74.66;100887.91;6047991;28;20087;-65
2023/06/21 07:56:48;;;;;;;6.40;3.33;;;;;;;24.36;73.84;100889.03;6049604;28;20038;-65
2023/06/21 07:59:43;;;;;;;6.17;3.40;;;;;;;24.38;72.72;100882.34;6049878;28;20036;-66
2023/06/21 08:02:40;;;;;;;4.75;3.42;;;;;;;24.36;73.15;100879.03;6049673;28;20381;-66
2023/06/21 08:05:36;;;;;;;4.68;2.83;;;;;;;24.81;72.44;100893.75;6049425;28;20029;-66
2023/06/21 08:08:31;;;;;;;5.07;2.80;;;;;;;25.15;71.45;100899.44;6045888;28;20045;-65
2023/06/21 08:11:26;;;;;;;5.80;3.20;;;;;;;24.90;70.80;100886.09;6029035;28;20034;-66
2023/06/21 08:14:21;;;;;;;6.27;3.30;;;;;;;24.93;71.58;100890.22;6036335;28;20056;-65
2023/06/21 08:17:17;;;;;;;7.43;4.17;;;;;;;25.16;70.74;100892.94;6049474;28;20484;-65
2023/06/21 08:20:12;;;;;;;5.20;3.40;;;;;;;25.34;69.08;100877.34;6049684;28;20057;-66
2023/06/21 08:23:08;;;;;;;6.32;3.70;;;;;;;25.24;67.38;100879.84;6042860;28;20091;-66
2023/06/21 08:26:03;;;;;;;6.55;3.60;;;;;;;25.51;68.32;100882.06;6048646;28;20105;-65
2023/06/21 08:28:59;;;;;;;5.60;3.53;;;;;;;25.54;66.05;100882.41;6064634;28;20110;-65
2023/06/21 08:31:54;;;;;;;5.60;3.40;;;;;;;25.14;69.23;100854.38;6048152;28;20404;-65
2023/06/21 08:34:52;;;;;;;5.60;3.27;;;;;;;24.88;69.01;100887.41;6043465;28;20041;-66
2023/06/21 08:37:55;;;;;;;6.75;3.83;;;;;;;24.76;68.01;100895.47;6030639;28;20033;-66
2023/06/21 08:40:51;;;;;;;5.88;3.60;;;;;;;25.12;65.45;100891.75;6053650;28;20084;-65
2023/06/21 08:43:46;;;;;;;6.38;3.30;;;;;;;25.45;63.15;100883.81;6050250;28;20038;-66
2023/06/21 08:46:42;;;;;;;7.90;3.60;;;;;;;25.33;64.35;100885.72;6042578;28;20034;-65
2023/06/21 08:49:40;;;;;;;4.85;3.47;;;;;;;25.62;63.21;100883.94;6053970;28;20080;-65
2023/06/21 08:52:36;;;;;;;6.18;3.50;;;;;;;25.87;63.50;100898.84;6042028;28;20033;-65
2023/06/21 08:55:36;;;;;;;5.93;4.30;;;;;;;26.34;60.67;100899.50;6053884;28;20054;-65
2023/06/21 08:58:37;;;;;;;5.72;3.53;;;;;;;26.10;63.22;100883.50;6057172;28;20029;-66
2023/06/21 09:01:38;;;;;;;5.78;3.78;;;;;;;25.60;62.98;100896.94;6053364;28;20026;-66
2023/06/21 09:04:40;;;;;;;6.45;3.53;;;;;;;25.55;64.00;100905.78;6044136;28;20053;-66
2023/06/21 09:07:36;;;;;;;6.13;3.88;;;;;;;25.94;61.37;100888.66;6068499;28;20029;-65
2023/06/21 09:10:33;;;;;;;7.57;3.58;;;;;;;25.95;63.25;100909.31;6053195;28;20044;-66
2023/06/21 09:13:29;;;;;;;6.28;3.92;;;;;;;26.08;59.92;100904.69;6042863;28;20187;-65
2023/06/21 09:16:25;;;;;;;7.25;4.05;;;;;;;26.30;61.38;100913.84;6023288;28;20054;-66
2023/06/21 09:19:20;;;;;;;7.53;3.67;;;;;;;26.06;59.76;100923.13;6048772;28;20146;-66
2023/06/21 09:22:15;;;;;;;6.07;4.00;;;;;;;25.98;60.35;100927.88;6068166;28;20033;-65
2023/06/21 09:25:11;;;;;;;6.70;4.20;;;;;;;25.84;61.83;100915.66;6067716;28;20034;-65
2023/06/21 09:28:06;;;;;;;6.90;4.23;;;;;;;25.65;60.23;100921.50;6052814;28;20369;-66
2023/06/21 09:31:01;;;;;;;5.50;3.85;;;;;;;25.85;60.38;100919.16;6046685;28;20022;-65
2023/06/21 09:33:57;;;;;;;6.57;4.10;;;;;;;25.65;60.55;100906.00;6047484;28;20030;-66
2023/06/21 09:36:53;;;;;;;7.18;4.20;;;;;;;25.84;61.91;100928.41;6028804;28;20129;-66
2023/06/21 09:39:54;;;;;;;6.30;3.95;;;;;;;25.81;60.19;100918.00;6043840;28;20026;-65
2023/06/21 09:42:50;;;;;;;6.57;3.78;;;;;;;26.08;61.42;100923.72;6050593;28;20469;-66
2023/06/21 09:46:05;;;;;;;6.72;4.22;;;;;;;25.93;59.53;100914.19;6033889;28;20037;-66
2023/06/21 09:49:09;;;;;;;10.15;4.57;;;;;;;25.95;59.45;100931.06;6026267;28;20034;-66
2023/06/21 09:52:05;;;;;;;5.15;3.85;;;;;;;26.10;60.01;100913.41;6052579;28;20061;-65
2023/06/21 09:55:02;;;;;;;7.93;4.20;;;;;;;25.98;59.52;100917.00;6051683;28;20024;-66
2023/06/21 09:57:58;;;;;;;7.70;4.05;;;;;;;25.92;59.55;100915.28;6052062;28;20030;-65
2023/06/21 10:00:56;;;;;;;8.07;4.15;;;;;;;26.20;59.65;100925.34;6050095;28;20386;-66
2023/06/21 10:03:51;;;;;;;5.70;4.10;;;;;;;25.94;59.05;100915.84;6051455;28;20064;-66
2023/06/21 10:06:50;;;;;;;5.27;3.80;;;;;;;26.19;59.22;100920.97;6052181;28;20465;-66
2023/06/21 10:09:46;;;;;;;5.45;4.05;;;;;;;26.34;58.36;100925.84;6051788;28;20496;-66
2023/06/21 10:12:50;;;;;;;6.68;3.88;;;;;;;26.62;57.72;100920.38;6051786;28;20113;-66
2023/06/21 10:15:46;;;;;;;6.35;3.75;;;;;;;26.76;58.05;100932.59;6046474;28;20030;-66
2023/06/21 10:18:41;;;;;;;5.75;4.38;;;;;;;26.68;55.03;100927.56;6051576;28;20036;-66
2023/06/21 10:21:37;;;;;;;7.30;3.60;;;;;;;26.79;56.41;100937.59;6051877;28;20500;-66
2023/06/21 10:24:40;;;;;;;5.03;3.25;;;;;;;26.69;54.67;100950.97;6050832;28;20109;-66
2023/06/21 10:27:35;;;;;;;7.47;4.43;;;;;;;26.43;57.68;100938.00;6050131;28;20026;-65
2023/06/21 10:30:33;;;;;;;6.95;3.72;;;;;;;26.86;57.95;100954.56;6044596;28;20064;-66
2023/06/21 10:33:30;;;;;;;5.80;3.75;;;;;;;27.38;52.44;100930.59;6050911;28;20029;-66
2023/06/21 10:36:31;;;;;;;7.28;4.35;;;;;;;26.73;54.73;100956.75;6048602;28;20038;-66
2023/06/21 10:39:27;;;;;;;7.28;4.28;;;;;;;26.07;56.37;100941.91;6066296;28;20029;-66
2023/06/21 10:42:23;;;;;;;5.18;3.83;;;;;;;26.29;56.79;100937.47;6043618;28;20026;-66
2023/06/21 10:45:19;;;;;;;5.78;4.10;;;;;;;27.18;55.24;100944.75;6046724;28;20029;-66
2023/06/21 10:48:15;;;;;;;8.60;3.80;;;;;;;28.15;54.63;100939.53;6051040;28;20060;-66
2023/06/21 10:51:10;;;;;;;5.50;3.92;;;;;;;28.40;52.57;100957.25;6049960;28;20025;-66
2023/06/21 10:54:05;;;;;;;6.70;4.65;;;;;;;27.85;52.94;100958.25;6048943;28;20511;-66
2023/06/21 10:57:01;;;;;;;5.88;3.95;;;;;;;27.23;53.80;100946.72;6042389;28;20088;-65
2023/06/21 10:59:58;;;;;;;7.20;4.27;;;;;;;27.03;52.83;100952.69;6046956;28;20029;-66
2023/06/21 11:02:53;;;;;;;6.13;3.60;;;;;;;27.38;53.27;100970.63;6065534;28;20493;-66
2023/06/21 11:06:15;;;;;;;7.43;3.80;;;;;;;27.56;51.89;100965.75;6048930;28;20036;-66
2023/06/21 11:09:11;;;;;;;12.02;4.57;;;;;;;27.10;51.88;100975.13;6050781;28;20040;-66
2023/06/21 11:12:08;;;;;;;6.78;5.18;;;;;;;26.74;53.36;100964.69;6041090;28;20045;-67
2023/06/21 11:15:05;;;;;;;7.28;4.85;;;;;;;26.85;52.48;100971.97;6050189;28;20466;-67
2023/06/21 11:18:03;;;;;;;7.05;5.13;;;;;;;27.01;53.38;100990.25;6048626;28;20072;-67
2023/06/21 11:21:04;;;;;;;6.47;5.25;;;;;;;26.94;53.00;100986.84;6050161;28;20037;-67
2023/06/21 11:24:05;;;;;;;7.55;5.25;;;;;;;27.43;53.22;100989.81;6049715;28;20044;-68
2023/06/21 11:27:05;;;;;;;8.57;5.07;;;;;;;27.42;52.06;100990.91;6050043;28;20358;-66
2023/06/21 11:30:03;;;;;;;;;;;;;;;27.68;51.35;100996.47;6044490;28;20500;-67
2023/06/21 11:32:58;;;;;;;;;;;;;;;27.37;51.76;100999.78;6051907;28;19905;-65
2023/06/21 11:35:54;;;;;;;7.57;5.70;;;;;;;26.90;54.50;101007.47;6040434;28;20250;-65
2023/06/21 11:39:04;;;;;;;9.90;6.83;;;;;;;26.67;55.74;101007.56;6046686;28;20073;-66
2023/06/21 11:42:00;;;;;;;8.32;6.00;;;;;;;27.04;55.16;101007.97;6048244;28;20025;-66
2023/06/21 11:44:55;;;;;;;8.70;6.30;;;;;;;27.44;52.15;101013.25;6049489;28;20079;-66
2023/06/21 11:48:03;;;;;;;8.65;6.82;;;;;;;27.37;53.91;101018.03;6036355;28;20026;-67
2023/06/21 11:51:09;;;;;;;9.07;6.60;;;;;;;27.08;53.87;101020.00;6050022;28;20500;-67
2023/06/21 11:54:04;;;;;;;9.20;6.45;;;;;;;26.90;53.10;101018.38;6049106;28;20025;-67
2023/06/21 11:57:00;;;;;;;9.93;7.00;;;;;;;27.15;53.86;101021.50;6050028;28;20120;-67
2023/06/21 11:59:55;;;;;;;8.57;6.67;;;;;;;27.70;52.13;101005.19;6048472;28;20342;-67
2023/06/21 12:02:50;;;;;;;9.30;7.30;;;;;;;27.90;50.81;101026.47;6049564;28;20053;-67
2023/06/21 12:06:06;;;;;;;9.13;6.83;;;;;;;27.65;52.67;101029.66;6040748;28;20033;-67
2023/06/21 12:09:02;;;;;;;8.35;5.88;;;;;;;28.10;49.58;101018.56;6049246;28;20038;-67
2023/06/21 12:11:58;;;;;;;6.88;5.63;;;;;;;28.76;49.02;101031.09;6049806;28;20083;-67
2023/06/21 12:14:56;;;;;;;7.47;5.63;;;;;;;29.18;47.36;101012.06;6052963;28;20057;-67
2023/06/21 12:17:52;;;;;;;9.52;6.13;;;;;;;28.45;47.62;101037.28;6054455;28;20465;-67
2023/06/21 12:20:48;;;;;;;9.07;6.43;;;;;;;27.77;50.14;101032.28;6047050;28;20036;-67
2023/06/21 12:23:44;;;;;;;8.15;6.10;;;;;;;27.65;50.04;101032.41;6030356;28;20050;-66
2023/06/21 12:26:48;;;;;;;8.30;6.10;;;;;;;27.02;51.88;101024.53;6027924;28;20174;-66
2023/06/21 12:29:49;;;;;;;8.73;5.82;;;;;;;27.34;50.53;101029.44;6037962;28;20089;-66
2023/06/21 12:32:46;;;;;;;8.57;6.20;;;;;;;27.64;51.33;101016.31;6046458;28;20073;-67
2023/06/21 12:35:44;;;;;;;8.02;5.70;;;;;;;28.35;49.15;101027.06;6034700;28;20030;-67
2023/06/21 12:38:42;;;;;;;6.20;5.10;;;;;;;28.52;47.20;101020.69;6035527;28;20034;-68
2023/06/21 12:41:39;;;;;;;8.65;5.15;;;;;;;28.86;47.91;101022.19;6044833;28;20030;-67
2023/06/21 12:44:34;;;;;;;8.55;4.75;;;;;;;29.24;46.22;101022.00;6053072;28;20034;-67
2023/06/21 12:47:30;;;;;;;8.00;4.82;;;;;;;28.90;45.11;101021.41;6054001;28;20037;-67
2023/06/21 12:50:26;;;;;;;6.65;5.20;;;;;;;27.90;46.44;101023.75;6053553;28;20041;-67
2023/06/21 12:53:25;;;;;;;7.47;5.03;;;;;;;27.54;50.13;101021.59;6046916;28;20023;-67
2023/06/21 12:56:21;;;;;;;8.63;5.15;;;;;;;27.81;50.68;101014.34;6047313;28;20300;-67
2023/06/21 12:59:16;;;;;;;8.85;4.90;;;;;;;28.00;49.99;101018.41;6053287;28;20410;-68
2023/06/21 13:02:11;;;;;;;7.65;4.85;;;;;;;28.38;48.65;101035.81;6053624;28;20033;-67
2023/06/21 13:05:07;;;;;;;7.67;5.63;;;;;;;28.49;48.87;101019.31;6052702;28;20483;-67
2023/06/21 13:08:02;;;;;;;8.88;6.03;;;;;;;28.78;48.91;101036.31;6053280;28;20034;-67
2023/06/21 13:10:59;;;;;;;7.50;5.43;;;;;;;29.12;46.34;101021.31;6042920;28;20030;-67
2023/06/21 13:13:55;;;;;;;10.38;5.75;;;;;;;29.22;45.94;101015.13;6052704;28;20030;-67
2023/06/21 13:16:50;;;;;;;6.20;4.50;;;;;;;29.71;44.16;101024.75;6053374;28;20109;-68
2023/06/21 13:19:45;;;;;;;7.40;4.60;;;;;;;30.01;42.96;101010.44;6052906;28;20458;-67
2023/06/21 13:22:41;;;;;;;7.27;4.87;;;;;;;30.58;42.04;101008.47;6053214;28;20073;-68
2023/06/21 13:25:36;;;;;;;5.97;4.90;;;;;;;30.58;43.84;101033.13;6051604;28;20034;-67
2023/06/21 13:28:31;;;;;;;6.93;5.22;;;;;;;30.00;43.04;101014.28;6046096;28;20057;-67
2023/06/21 13:31:27;;;;;;;6.77;5.00;;;;;;;29.84;44.98;101018.03;6042462;28;20034;-68
2023/06/21 13:34:22;;;;;;;6.90;4.70;;;;;;;30.17;45.56;101023.09;6052258;28;20026;-67